sensor_id;sensor_type;location;lat;lon;timestamp;pressure;altitude;pressure_sealevel;temperature;humidity
54042;BME280;41156;51.508;5.406;2023-03-30T00:02:15;100497.41;;;12.81;100.00
54042;BME280;41156;51.508;5.406;2023-03-30T00:05:18;100492.66;;;12.88;100.00
54042;BME280;41156;51.508;5.406;2023-03-30T00:08:18;100492.09;;;12.86;100.00
54042;BME280;41156;51.508;5.406;2023-03-30T00:11:19;100491.25;;;12.86;100.00
54042;BME280;41156;51.508;5.406;2023-03-30T00:14:22;100459.91;;;12.78;100.00
54042;BME280;41156;51.508;5.406;2023-03-30T00:17:28;100471.00;;;12.65;100.00
54042;BME280;41156;51.508;5.406;2023-03-30T00:20:29;100473.16;;;12.51;100.00
54042;BME280;41156;51.508;5.406;2023-03-30T00:23:31;100475.38;;;12.42;100.00
54042;BME280;41156;51.508;5.406;2023-03-30T00:26:32;100452.31;;;12.39;100.00
54042;BME280;41156;51.508;5.406;2023-03-30T00:29:32;100466.44;;;12.42;100.00
54042;BME280;41156;51.508;5.406;2023-03-30T00:32:32;100464.91;;;12.46;100.00
54042;BME280;41156;51.508;5.406;2023-03-30T00:35:33;100461.25;;;12.40;100.00
54042;BME280;41156;51.508;5.406;2023-03-30T00:38:34;100451.13;;;12.35;100.00
54042;BME280;41156;51.508;5.406;2023-03-30T00:41:35;100452.06;;;12.29;100.00
54042;BME280;41156;51.508;5.406;2023-03-30T00:45:04;100442.75;;;12.25;100.00
54042;BME280;41156;51.508;5.406;2023-03-30T00:48:12;100444.41;;;12.26;100.00
54042;BME280;41156;51.508;5.406;2023-03-30T00:51:17;100426.75;;;12.24;99.71
54042;BME280;41156;51.508;5.406;2023-03-30T00:54:18;100421.44;;;12.29;100.00
54042;BME280;41156;51.508;5.406;2023-03-30T00:57:21;100414.50;;;12.33;99.91
54042;BME280;41156;51.508;5.406;2023-03-30T01:00:23;100408.59;;;12.36;100.00
54042;BME280;41156;51.508;5.406;2023-03-30T01:03:29;100416.38;;;12.32;99.90
54042;BME280;41156;51.508;5.406;2023-03-30T01:06:33;100416.84;;;12.29;99.96
54042;BME280;41156;51.508;5.406;2023-03-30T01:09:34;100406.72;;;12.25;100.00
54042;BME280;41156;51.508;5.406;2023-03-30T01:12:34;100404.84;;;12.13;100.00
54042;BME280;41156;51.508;5.406;2023-03-30T01:15:41;100407.53;;;12.01;100.00
54042;BME280;41156;51.508;5.406;2023-03-30T01:25:56;100416.31;;;11.73;100.00
54042;BME280;41156;51.508;5.406;2023-03-30T01:29:34;100420.41;;;11.64;100.00
54042;BME280;41156;51.508;5.406;2023-03-30T01:36:56;100408.66;;;11.70;100.00
54042;BME280;41156;51.508;5.406;2023-03-30T01:40:09;100406.47;;;11.91;100.00
54042;BME280;41156;51.508;5.406;2023-03-30T01:43:29;100398.38;;;12.02;100.00
54042;BME280;41156;51.508;5.406;2023-03-30T01:46:40;100388.59;;;12.13;100.00
54042;BME280;41156;51.508;5.406;2023-03-30T01:49:47;100390.94;;;12.21;100.00
54042;BME280;41156;51.508;5.406;2023-03-30T02:02:29;100412.03;;;12.19;100.00
54042;BME280;41156;51.508;5.406;2023-03-30T02:05:31;100399.19;;;12.15;100.00
54042;BME280;41156;51.508;5.406;2023-03-30T02:08:34;100409.69;;;12.11;100.00
54042;BME280;41156;51.508;5.406;2023-03-30T02:11:37;100416.13;;;12.10;100.00
54042;BME280;41156;51.508;5.406;2023-03-30T02:14:40;100416.72;;;12.12;100.00
54042;BME280;41156;51.508;5.406;2023-03-30T02:17:41;100413.06;;;12.18;100.00
54042;BME280;41156;51.508;5.406;2023-03-30T02:20:45;100399.41;;;12.25;100.00
54042;BME280;41156;51.508;5.406;2023-03-30T02:23:46;100396.69;;;12.25;100.00
54042;BME280;41156;51.508;5.406;2023-03-30T02:26:49;100402.59;;;12.22;100.00
54042;BME280;41156;51.508;5.406;2023-03-30T02:29:50;100394.59;;;12.15;100.00
54042;BME280;41156;51.508;5.406;2023-03-30T02:32:54;100402.72;;;12.15;100.00
54042;BME280;41156;51.508;5.406;2023-03-30T02:36:08;100400.63;;;12.17;100.00
54042;BME280;41156;51.508;5.406;2023-03-30T02:39:25;100391.75;;;12.22;100.00
54042;BME280;41156;51.508;5.406;2023-03-30T02:56:04;100397.25;;;12.63;99.55
54042;BME280;41156;51.508;5.406;2023-03-30T02:59:14;100390.03;;;12.68;99.98
54042;BME280;41156;51.508;5.406;2023-03-30T03:02:41;100392.94;;;12.78;98.72
54042;BME280;41156;51.508;5.406;2023-03-30T03:05:43;100382.19;;;12.84;99.11
54042;BME280;41156;51.508;5.406;2023-03-30T03:08:44;100377.72;;;12.89;99.74
54042;BME280;41156;51.508;5.406;2023-03-30T03:11:47;100377.00;;;12.94;99.67
54042;BME280;41156;51.508;5.406;2023-03-30T03:14:47;100380.84;;;12.98;98.80
54042;BME280;41156;51.508;5.406;2023-03-30T03:17:47;100383.34;;;13.00;99.02
54042;BME280;41156;51.508;5.406;2023-03-30T03:20:50;100381.44;;;13.00;98.72
54042;BME280;41156;51.508;5.406;2023-03-30T03:23:50;100379.28;;;13.02;98.78
54042;BME280;41156;51.508;5.406;2023-03-30T03:26:51;100387.19;;;13.04;98.60
54042;BME280;41156;51.508;5.406;2023-03-30T03:29:51;100372.56;;;13.05;98.22
54042;BME280;41156;51.508;5.406;2023-03-30T03:32:51;100380.94;;;13.03;98.31
54042;BME280;41156;51.508;5.406;2023-03-30T03:35:52;100380.13;;;13.03;98.64
54042;BME280;41156;51.508;5.406;2023-03-30T03:38:53;100371.44;;;13.01;98.13
54042;BME280;41156;51.508;5.406;2023-03-30T03:41:53;100365.72;;;13.02;98.02
54042;BME280;41156;51.508;5.406;2023-03-30T03:44:53;100363.88;;;13.03;98.12
54042;BME280;41156;51.508;5.406;2023-03-30T03:47:54;100362.78;;;13.04;98.10
54042;BME280;41156;51.508;5.406;2023-03-30T03:50:56;100366.34;;;13.04;97.29
54042;BME280;41156;51.508;5.406;2023-03-30T03:53:57;100365.84;;;13.07;97.10
54042;BME280;41156;51.508;5.406;2023-03-30T03:56:57;100368.28;;;13.09;96.87
54042;BME280;41156;51.508;5.406;2023-03-30T03:59:59;100356.97;;;13.12;92.79
54042;BME280;41156;51.508;5.406;2023-03-30T04:02:59;100364.72;;;13.20;95.74
54042;BME280;41156;51.508;5.406;2023-03-30T04:06:00;100366.38;;;13.21;95.31
54042;BME280;41156;51.508;5.406;2023-03-30T04:09:01;100353.63;;;13.22;94.82
54042;BME280;41156;51.508;5.406;2023-03-30T04:12:01;100362.59;;;13.22;92.81
54042;BME280;41156;51.508;5.406;2023-03-30T04:15:02;100353.03;;;13.20;94.58
54042;BME280;41156;51.508;5.406;2023-03-30T04:18:02;100350.47;;;13.13;93.88
54042;BME280;41156;51.508;5.406;2023-03-30T04:21:05;100346.88;;;13.07;95.38
54042;BME280;41156;51.508;5.406;2023-03-30T04:24:07;100342.66;;;13.00;95.37
54042;BME280;41156;51.508;5.406;2023-03-30T04:27:11;100349.03;;;12.93;95.71
54042;BME280;41156;51.508;5.406;2023-03-30T04:30:17;100344.34;;;12.89;95.86
54042;BME280;41156;51.508;5.406;2023-03-30T04:33:17;100340.22;;;12.86;96.39
54042;BME280;41156;51.508;5.406;2023-03-30T04:36:19;100336.34;;;12.82;95.16
54042;BME280;41156;51.508;5.406;2023-03-30T04:39:20;100333.63;;;12.82;96.47
54042;BME280;41156;51.508;5.406;2023-03-30T04:42:20;100322.69;;;12.77;95.34
54042;BME280;41156;51.508;5.406;2023-03-30T04:45:20;100318.59;;;12.74;95.38
54042;BME280;41156;51.508;5.406;2023-03-30T04:48:22;100323.06;;;12.69;95.92
54042;BME280;41156;51.508;5.406;2023-03-30T04:51:23;100324.06;;;12.63;96.85
54042;BME280;41156;51.508;5.406;2023-03-30T04:54:23;100321.03;;;12.59;97.26
54042;BME280;41156;51.508;5.406;2023-03-30T04:57:23;100325.03;;;12.56;96.89
54042;BME280;41156;51.508;5.406;2023-03-30T05:00:24;100332.81;;;12.53;97.03
54042;BME280;41156;51.508;5.406;2023-03-30T05:03:24;100330.81;;;12.48;97.13
54042;BME280;41156;51.508;5.406;2023-03-30T05:06:24;100331.28;;;12.45;97.61
54042;BME280;41156;51.508;5.406;2023-03-30T05:09:26;100349.91;;;12.42;98.48
54042;BME280;41156;51.508;5.406;2023-03-30T05:12:26;100365.84;;;12.38;100.00
54042;BME280;41156;51.508;5.406;2023-03-30T05:15:27;100369.97;;;12.29;100.00
54042;BME280;41156;51.508;5.406;2023-03-30T05:18:27;100377.75;;;12.13;100.00
54042;BME280;41156;51.508;5.406;2023-03-30T05:21:27;100378.22;;;11.98;100.00
54042;BME280;41156;51.508;5.406;2023-03-30T05:24:30;100384.06;;;11.83;100.00
54042;BME280;41156;51.508;5.406;2023-03-30T05:27:30;100390.91;;;11.74;100.00
54042;BME280;41156;51.508;5.406;2023-03-30T05:30:30;100394.78;;;11.66;100.00
54042;BME280;41156;51.508;5.406;2023-03-30T05:33:31;100397.00;;;11.58;100.00
54042;BME280;41156;51.508;5.406;2023-03-30T05:36:31;100401.66;;;11.51;100.00
54042;BME280;41156;51.508;5.406;2023-03-30T05:39:31;100401.53;;;11.45;100.00
54042;BME280;41156;51.508;5.406;2023-03-30T05:42:32;100404.75;;;11.42;100.00
54042;BME280;41156;51.508;5.406;2023-03-30T05:45:32;100410.84;;;11.38;100.00
54042;BME280;41156;51.508;5.406;2023-03-30T05:48:32;100403.63;;;11.32;100.00
54042;BME280;41156;51.508;5.406;2023-03-30T05:51:33;100398.44;;;11.30;100.00
54042;BME280;41156;51.508;5.406;2023-03-30T05:54:33;100391.63;;;11.27;100.00
54042;BME280;41156;51.508;5.406;2023-03-30T05:57:33;100398.91;;;11.27;100.00
54042;BME280;41156;51.508;5.406;2023-03-30T06:00:33;100405.63;;;11.24;100.00
54042;BME280;41156;51.508;5.406;2023-03-30T06:03:35;100416.06;;;11.21;100.00
54042;BME280;41156;51.508;5.406;2023-03-30T06:06:37;100423.13;;;11.22;100.00
54042;BME280;41156;51.508;5.406;2023-03-30T06:09:38;100420.88;;;11.19;100.00
54042;BME280;41156;51.508;5.406;2023-03-30T06:12:39;100413.59;;;11.19;100.00
54042;BME280;41156;51.508;5.406;2023-03-30T06:15:39;100417.94;;;11.20;100.00
54042;BME280;41156;51.508;5.406;2023-03-30T06:18:41;100414.78;;;11.23;100.00
54042;BME280;41156;51.508;5.406;2023-03-30T06:21:41;100417.47;;;11.23;100.00
54042;BME280;41156;51.508;5.406;2023-03-30T06:24:41;100434.28;;;11.25;100.00
54042;BME280;41156;51.508;5.406;2023-03-30T06:27:42;100433.25;;;11.26;100.00
54042;BME280;41156;51.508;5.406;2023-03-30T06:30:42;100440.06;;;11.29;100.00
54042;BME280;41156;51.508;5.406;2023-03-30T06:33:44;100434.81;;;11.34;100.00
54042;BME280;41156;51.508;5.406;2023-03-30T06:36:45;100434.81;;;11.34;100.00
54042;BME280;41156;51.508;5.406;2023-03-30T06:39:45;100437.97;;;11.31;100.00
54042;BME280;41156;51.508;5.406;2023-03-30T06:42:46;100434.44;;;11.30;100.00
54042;BME280;41156;51.508;5.406;2023-03-30T06:45:54;100440.13;;;11.41;100.00
54042;BME280;41156;51.508;5.406;2023-03-30T06:48:55;100446.63;;;11.52;100.00
54042;BME280;41156;51.508;5.406;2023-03-30T06:51:55;100437.38;;;11.59;100.00
54042;BME280;41156;51.508;5.406;2023-03-30T06:54:56;100439.34;;;11.64;100.00
54042;BME280;41156;51.508;5.406;2023-03-30T06:57:56;100425.81;;;11.64;100.00
54042;BME280;41156;51.508;5.406;2023-03-30T07:00:56;100438.06;;;11.66;100.00
54042;BME280;41156;51.508;5.406;2023-03-30T07:03:57;100437.38;;;11.71;100.00
54042;BME280;41156;51.508;5.406;2023-03-30T07:06:57;100444.19;;;11.74;100.00
54042;BME280;41156;51.508;5.406;2023-03-30T07:09:58;100440.34;;;11.81;100.00
54042;BME280;41156;51.508;5.406;2023-03-30T07:12:58;100438.88;;;12.09;100.00
54042;BME280;41156;51.508;5.406;2023-03-30T07:15:59;100437.47;;;12.94;100.00
54042;BME280;41156;51.508;5.406;2023-03-30T07:19:00;100451.03;;;13.98;100.00
54042;BME280;41156;51.508;5.406;2023-03-30T07:22:00;100446.97;;;14.73;100.00
54042;BME280;41156;51.508;5.406;2023-03-30T07:25:01;100447.38;;;15.31;100.00
54042;BME280;41156;51.508;5.406;2023-03-30T07:28:01;100453.91;;;15.85;100.00
54042;BME280;41156;51.508;5.406;2023-03-30T07:31:05;100451.50;;;16.26;100.00
54042;BME280;41156;51.508;5.406;2023-03-30T07:34:06;100457.31;;;15.97;100.00
54042;BME280;41156;51.508;5.406;2023-03-30T07:37:06;100455.97;;;15.45;100.00
54042;BME280;41156;51.508;5.406;2023-03-30T07:40:07;100451.59;;;14.95;100.00
54042;BME280;41156;51.508;5.406;2023-03-30T07:43:08;100466.22;;;14.50;100.00
54042;BME280;41156;51.508;5.406;2023-03-30T07:46:09;100472.94;;;14.08;100.00
54042;BME280;41156;51.508;5.406;2023-03-30T07:49:10;100473.91;;;13.85;100.00
54042;BME280;41156;51.508;5.406;2023-03-30T07:52:12;100476.78;;;13.78;100.00
54042;BME280;41156;51.508;5.406;2023-03-30T07:55:13;100476.22;;;13.76;100.00
54042;BME280;41156;51.508;5.406;2023-03-30T07:58:13;100484.84;;;13.73;100.00
54042;BME280;41156;51.508;5.406;2023-03-30T08:01:14;100486.00;;;13.77;100.00
54042;BME280;41156;51.508;5.406;2023-03-30T08:04:17;100486.91;;;13.83;100.00
54042;BME280;41156;51.508;5.406;2023-03-30T08:07:17;100497.63;;;13.90;100.00
54042;BME280;41156;51.508;5.406;2023-03-30T08:10:18;100494.00;;;13.84;100.00
54042;BME280;41156;51.508;5.406;2023-03-30T08:13:19;100497.03;;;13.87;100.00
54042;BME280;41156;51.508;5.406;2023-03-30T08:16:19;100498.44;;;13.90;100.00
54042;BME280;41156;51.508;5.406;2023-03-30T08:19:21;100499.59;;;13.94;100.00
54042;BME280;41156;51.508;5.406;2023-03-30T08:22:22;100506.19;;;13.98;100.00
54042;BME280;41156;51.508;5.406;2023-03-30T08:25:22;100516.38;;;13.91;100.00
54042;BME280;41156;51.508;5.406;2023-03-30T08:28:23;100506.31;;;13.75;100.00
54042;BME280;41156;51.508;5.406;2023-03-30T08:31:23;100512.91;;;13.79;100.00
54042;BME280;41156;51.508;5.406;2023-03-30T08:34:24;100508.63;;;13.83;100.00
54042;BME280;41156;51.508;5.406;2023-03-30T08:37:24;100495.56;;;13.97;100.00
54042;BME280;41156;51.508;5.406;2023-03-30T08:40:24;100497.88;;;14.22;100.00
54042;BME280;41156;51.508;5.406;2023-03-30T08:46:48;100508.97;;;14.71;100.00
54042;BME280;41156;51.508;5.406;2023-03-30T08:49:58;100514.53;;;14.82;100.00
54042;BME280;41156;51.508;5.406;2023-03-30T08:53:05;100507.84;;;14.89;100.00
54042;BME280;41156;51.508;5.406;2023-03-30T08:56:11;100507.66;;;14.96;100.00
54042;BME280;41156;51.508;5.406;2023-03-30T09:02:37;100500.91;;;15.21;100.00
54042;BME280;41156;51.508;5.406;2023-03-30T09:05:46;100505.97;;;15.34;100.00
54042;BME280;41156;51.508;5.406;2023-03-30T09:08:48;100510.75;;;15.49;100.00
54042;BME280;41156;51.508;5.406;2023-03-30T09:12:11;100519.84;;;15.60;100.00
54042;BME280;41156;51.508;5.406;2023-03-30T09:15:32;100525.28;;;15.60;100.00
54042;BME280;41156;51.508;5.406;2023-03-30T09:18:37;100530.47;;;15.34;100.00
54042;BME280;41156;51.508;5.406;2023-03-30T09:21:38;100542.53;;;14.99;100.00
54042;BME280;41156;51.508;5.406;2023-03-30T09:24:38;100539.63;;;14.67;100.00
54042;BME280;41156;51.508;5.406;2023-03-30T09:31:24;100553.63;;;14.41;100.00
54042;BME280;41156;51.508;5.406;2023-03-30T09:34:43;100556.78;;;14.67;100.00
54042;BME280;41156;51.508;5.406;2023-03-30T09:37:44;100552.03;;;15.18;100.00
54042;BME280;41156;51.508;5.406;2023-03-30T09:41:02;100555.13;;;15.49;100.00
54042;BME280;41156;51.508;5.406;2023-03-30T09:44:18;100553.78;;;15.52;100.00
54042;BME280;41156;51.508;5.406;2023-03-30T09:47:32;100557.78;;;15.66;100.00
54042;BME280;41156;51.508;5.406;2023-03-30T09:50:39;100559.34;;;15.84;100.00
54042;BME280;41156;51.508;5.406;2023-03-30T09:53:42;100564.13;;;15.99;100.00
54042;BME280;41156;51.508;5.406;2023-03-30T09:56:43;100558.63;;;15.94;100.00
54042;BME280;41156;51.508;5.406;2023-03-30T09:59:46;100576.88;;;15.94;100.00
54042;BME280;41156;51.508;5.406;2023-03-30T10:02:58;100565.38;;;15.86;96.06
54042;BME280;41156;51.508;5.406;2023-03-30T10:09:02;100582.66;;;15.75;100.00
54042;BME280;41156;51.508;5.406;2023-03-30T10:12:05;100569.38;;;15.57;100.00
54042;BME280;41156;51.508;5.406;2023-03-30T10:15:13;100580.75;;;15.53;100.00
54042;BME280;41156;51.508;5.406;2023-03-30T10:21:19;100585.00;;;15.88;100.00
54042;BME280;41156;51.508;5.406;2023-03-30T10:24:29;100595.06;;;16.15;100.00
54042;BME280;41156;51.508;5.406;2023-03-30T10:27:32;100590.28;;;16.27;100.00
54042;BME280;41156;51.508;5.406;2023-03-30T10:30:33;100582.88;;;16.23;100.00
54042;BME280;41156;51.508;5.406;2023-03-30T10:33:39;100587.47;;;16.17;97.96
54042;BME280;41156;51.508;5.406;2023-03-30T10:36:40;100579.31;;;16.17;100.00
54042;BME280;41156;51.508;5.406;2023-03-30T10:39:42;100587.91;;;16.04;100.00
54042;BME280;41156;51.508;5.406;2023-03-30T10:42:51;100593.41;;;16.09;100.00
54042;BME280;41156;51.508;5.406;2023-03-30T10:45:56;100586.34;;;16.13;100.00
54042;BME280;41156;51.508;5.406;2023-03-30T10:49:38;100588.59;;;16.21;97.04
54042;BME280;41156;51.508;5.406;2023-03-30T10:52:42;100585.34;;;16.24;96.97
54042;BME280;41156;51.508;5.406;2023-03-30T10:56:11;100587.91;;;16.69;98.42
54042;BME280;41156;51.508;5.406;2023-03-30T10:59:36;100588.13;;;16.99;98.70
54042;BME280;41156;51.508;5.406;2023-03-30T11:02:50;100584.38;;;17.11;95.93
54042;BME280;41156;51.508;5.406;2023-03-30T11:06:02;100592.00;;;17.09;99.67
54042;BME280;41156;51.508;5.406;2023-03-30T11:09:10;100591.25;;;16.81;99.99
54042;BME280;41156;51.508;5.406;2023-03-30T11:12:16;100596.03;;;16.63;100.00
54042;BME280;41156;51.508;5.406;2023-03-30T11:15:25;100591.47;;;16.74;98.49
54042;BME280;41156;51.508;5.406;2023-03-30T11:18:39;100590.69;;;16.79;87.36
54042;BME280;41156;51.508;5.406;2023-03-30T11:21:56;100585.59;;;16.88;100.00
54042;BME280;41156;51.508;5.406;2023-03-30T11:24:59;100572.75;;;16.88;100.00
54042;BME280;41156;51.508;5.406;2023-03-30T11:35:03;100592.06;;;16.44;96.77
54042;BME280;41156;51.508;5.406;2023-03-30T11:38:13;100589.56;;;16.37;98.91
54042;BME280;41156;51.508;5.406;2023-03-30T11:41:23;100580.72;;;16.25;97.03
54042;BME280;41156;51.508;5.406;2023-03-30T11:44:27;100595.06;;;16.15;100.00
54042;BME280;41156;51.508;5.406;2023-03-30T12:00:54;100594.50;;;16.40;96.65
54042;BME280;41156;51.508;5.406;2023-03-30T12:04:04;100605.72;;;16.44;97.14
54042;BME280;41156;51.508;5.406;2023-03-30T12:10:36;100613.53;;;17.05;94.00
54042;BME280;41156;51.508;5.406;2023-03-30T12:13:38;100613.66;;;17.26;100.00
54042;BME280;41156;51.508;5.406;2023-03-30T12:16:43;100610.25;;;17.03;100.00
54042;BME280;41156;51.508;5.406;2023-03-30T12:20:02;100620.13;;;16.77;99.88
54042;BME280;41156;51.508;5.406;2023-03-30T12:26:25;100615.94;;;16.96;91.82
54042;BME280;41156;51.508;5.406;2023-03-30T12:29:46;100625.53;;;16.99;85.56
54042;BME280;41156;51.508;5.406;2023-03-30T12:33:02;100608.78;;;16.90;100.00
54042;BME280;41156;51.508;5.406;2023-03-30T12:36:30;100610.22;;;16.60;89.95
54042;BME280;41156;51.508;5.406;2023-03-30T12:39:39;100615.28;;;16.19;96.98
54042;BME280;41156;51.508;5.406;2023-03-30T12:42:51;100614.06;;;16.05;99.43
54042;BME280;41156;51.508;5.406;2023-03-30T12:46:08;100605.09;;;16.37;99.76
54042;BME280;41156;51.508;5.406;2023-03-30T12:49:45;100603.94;;;16.97;89.16
54042;BME280;41156;51.508;5.406;2023-03-30T12:59:38;100588.44;;;17.71;92.89
54042;BME280;41156;51.508;5.406;2023-03-30T13:02:58;100586.03;;;17.85;85.69
54042;BME280;41156;51.508;5.406;2023-03-30T13:06:02;100585.22;;;17.90;96.08
54042;BME280;41156;51.508;5.406;2023-03-30T13:15:39;100598.34;;;17.93;75.40
54042;BME280;41156;51.508;5.406;2023-03-30T13:18:52;100575.94;;;17.91;74.59
54042;BME280;41156;51.508;5.406;2023-03-30T13:28:34;100574.47;;;17.63;79.85
54042;BME280;41156;51.508;5.406;2023-03-30T13:51:30;100568.34;;;17.35;82.14
54042;BME280;41156;51.508;5.406;2023-03-30T13:54:32;100592.78;;;17.04;79.54
54042;BME280;41156;51.508;5.406;2023-03-30T13:57:35;100590.97;;;16.45;86.43
54042;BME280;41156;51.508;5.406;2023-03-30T14:00:44;100605.53;;;15.96;89.77
54042;BME280;41156;51.508;5.406;2023-03-30T14:03:49;100612.44;;;15.82;91.36
54042;BME280;41156;51.508;5.406;2023-03-30T14:06:52;100615.34;;;15.75;92.27
54042;BME280;41156;51.508;5.406;2023-03-30T14:10:12;100622.94;;;15.73;91.32
54042;BME280;41156;51.508;5.406;2023-03-30T14:13:14;100594.22;;;15.82;91.71
54042;BME280;41156;51.508;5.406;2023-03-30T14:16:20;100608.50;;;15.95;92.57
54042;BME280;41156;51.508;5.406;2023-03-30T14:22:24;100605.56;;;16.28;90.28
54042;BME280;41156;51.508;5.406;2023-03-30T14:25:38;100603.03;;;16.49;91.13
54042;BME280;41156;51.508;5.406;2023-03-30T14:28:38;100605.09;;;16.69;93.01
54042;BME280;41156;51.508;5.406;2023-03-30T14:31:42;100604.97;;;16.86;90.32
54042;BME280;41156;51.508;5.406;2023-03-30T14:34:47;100602.34;;;17.07;92.27
54042;BME280;41156;51.508;5.406;2023-03-30T14:37:47;100613.34;;;17.17;87.15
54042;BME280;41156;51.508;5.406;2023-03-30T14:40:50;100606.78;;;17.18;90.01
54042;BME280;41156;51.508;5.406;2023-03-30T14:43:57;100593.28;;;16.96;90.31
54042;BME280;41156;51.508;5.406;2023-03-30T14:46:59;100612.63;;;16.89;94.25
54042;BME280;41156;51.508;5.406;2023-03-30T14:50:03;100596.69;;;16.76;91.41
54042;BME280;41156;51.508;5.406;2023-03-30T14:53:04;100589.19;;;16.61;95.92
54042;BME280;41156;51.508;5.406;2023-03-30T14:56:05;100581.94;;;16.77;94.76
54042;BME280;41156;51.508;5.406;2023-03-30T14:59:09;100574.97;;;16.91;96.25
54042;BME280;41156;51.508;5.406;2023-03-30T15:02:18;100580.19;;;16.98;90.92
54042;BME280;41156;51.508;5.406;2023-03-30T15:05:22;100584.28;;;16.95;91.66
54042;BME280;41156;51.508;5.406;2023-03-30T15:08:25;100581.25;;;16.92;94.43
54042;BME280;41156;51.508;5.406;2023-03-30T15:11:26;100588.78;;;16.79;94.62
54042;BME280;41156;51.508;5.406;2023-03-30T15:14:33;100573.81;;;16.82;91.35
54042;BME280;41156;51.508;5.406;2023-03-30T15:17:35;100584.28;;;16.95;89.28
54042;BME280;41156;51.508;5.406;2023-03-30T15:20:36;100560.06;;;17.09;91.73
54042;BME280;41156;51.508;5.406;2023-03-30T15:23:38;100559.28;;;17.19;90.88
54042;BME280;41156;51.508;5.406;2023-03-30T15:26:43;100570.25;;;17.29;85.90
54042;BME280;41156;51.508;5.406;2023-03-30T15:29:45;100569.47;;;17.39;87.94
54042;BME280;41156;51.508;5.406;2023-03-30T15:32:46;100571.94;;;17.35;87.42
54042;BME280;41156;51.508;5.406;2023-03-30T15:35:49;100576.47;;;17.14;85.62
54042;BME280;41156;51.508;5.406;2023-03-30T15:38:55;100575.69;;;16.81;83.56
54042;BME280;41156;51.508;5.406;2023-03-30T15:41:59;100570.16;;;16.71;84.31
54042;BME280;41156;51.508;5.406;2023-03-30T15:45:09;100570.94;;;16.67;84.20
54042;BME280;41156;51.508;5.406;2023-03-30T15:48:10;100571.00;;;16.77;87.91
54042;BME280;41156;51.508;5.406;2023-03-30T15:51:29;100562.75;;;16.67;86.48
54042;BME280;41156;51.508;5.406;2023-03-30T15:54:38;100561.59;;;16.52;84.15
54042;BME280;41156;51.508;5.406;2023-03-30T15:57:45;100561.50;;;16.42;83.56
54042;BME280;41156;51.508;5.406;2023-03-30T16:00:47;100559.53;;;16.32;87.00
54042;BME280;41156;51.508;5.406;2023-03-30T16:03:52;100572.50;;;16.20;81.79
54042;BME280;41156;51.508;5.406;2023-03-30T16:06:53;100570.53;;;16.15;86.09
54042;BME280;41156;51.508;5.406;2023-03-30T16:09:54;100566.75;;;16.16;86.07
54042;BME280;41156;51.508;5.406;2023-03-30T16:12:56;100572.72;;;16.13;85.32
54042;BME280;41156;51.508;5.406;2023-03-30T16:15:57;100571.06;;;16.12;84.00
54042;BME280;41156;51.508;5.406;2023-03-30T16:18:57;100563.19;;;16.16;84.59
54042;BME280;41156;51.508;5.406;2023-03-30T16:21:58;100564.63;;;16.23;84.18
54042;BME280;41156;51.508;5.406;2023-03-30T16:24:58;100563.03;;;16.27;82.80
54042;BME280;41156;51.508;5.406;2023-03-30T16:27:59;100565.72;;;16.22;83.48
54042;BME280;41156;51.508;5.406;2023-03-30T16:31:03;100560.66;;;16.04;79.73
54042;BME280;41156;51.508;5.406;2023-03-30T16:34:05;100560.16;;;15.85;79.91
54042;BME280;41156;51.508;5.406;2023-03-30T16:37:05;100562.19;;;15.72;84.25
54042;BME280;41156;51.508;5.406;2023-03-30T16:40:29;100558.28;;;15.63;82.65
54042;BME280;41156;51.508;5.406;2023-03-30T16:43:30;100560.69;;;15.60;83.38
54042;BME280;41156;51.508;5.406;2023-03-30T16:46:30;100568.81;;;15.54;83.63
54042;BME280;41156;51.508;5.406;2023-03-30T16:49:31;100563.34;;;15.54;85.44
54042;BME280;41156;51.508;5.406;2023-03-30T16:52:31;100562.03;;;15.57;84.93
54042;BME280;41156;51.508;5.406;2023-03-30T16:55:32;100556.84;;;15.56;85.56
54042;BME280;41156;51.508;5.406;2023-03-30T16:58:32;100549.94;;;15.48;84.53
54042;BME280;41156;51.508;5.406;2023-03-30T17:01:32;100558.88;;;15.43;85.31
54042;BME280;41156;51.508;5.406;2023-03-30T17:04:33;100561.84;;;15.42;85.90
54042;BME280;41156;51.508;5.406;2023-03-30T17:07:33;100564.25;;;15.38;86.75
54042;BME280;41156;51.508;5.406;2023-03-30T17:10:38;100560.91;;;15.31;87.83
54042;BME280;41156;51.508;5.406;2023-03-30T17:13:39;100569.00;;;15.26;88.39
54042;BME280;41156;51.508;5.406;2023-03-30T17:16:40;100562.91;;;15.18;90.03
54042;BME280;41156;51.508;5.406;2023-03-30T17:19:41;100566.41;;;15.14;89.52
54042;BME280;41156;51.508;5.406;2023-03-30T17:22:41;100567.47;;;15.13;90.56
54042;BME280;41156;51.508;5.406;2023-03-30T17:25:42;100555.72;;;15.07;92.91
54042;BME280;41156;51.508;5.406;2023-03-30T17:28:43;100565.38;;;14.98;91.65
54042;BME280;41156;51.508;5.406;2023-03-30T17:31:43;100559.63;;;14.94;93.34
54042;BME280;41156;51.508;5.406;2023-03-30T17:34:44;100569.84;;;14.87;93.44
54042;BME280;41156;51.508;5.406;2023-03-30T17:37:45;100572.41;;;14.77;97.45
54042;BME280;41156;51.508;5.406;2023-03-30T17:40:45;100572.56;;;14.70;95.32
54042;BME280;41156;51.508;5.406;2023-03-30T17:43:47;100563.66;;;14.58;96.84
54042;BME280;41156;51.508;5.406;2023-03-30T17:46:47;100565.16;;;14.49;97.11
54042;BME280;41156;51.508;5.406;2023-03-30T17:49:48;100565.31;;;14.42;97.99
54042;BME280;41156;51.508;5.406;2023-03-30T17:52:49;100563.94;;;14.39;98.09
54042;BME280;41156;51.508;5.406;2023-03-30T17:55:50;100564.34;;;14.31;99.09
54042;BME280;41156;51.508;5.406;2023-03-30T17:58:51;100566.97;;;14.26;100.00